AUA210 EGLC-LOWW
Flight info
| Callsign | AUA210 |
|---|---|
| Flight time | N/A |
| Altitude | 35000 |
| Route | SOQQA M87 UMTUM UL9 KONAN UL607 MATUG DCT GUBAX DCT BOREP DCT ENITA DCT ETVIS DCT BUDEX |
| Aircraft | A320/M-SDE3FGHIRWY/LB1 |
Departure
| Time | N/A |
|---|---|
| Airport | London City Airport (EGLC) |
Arrival
| Time | 2026-05-05 11:03 |
|---|---|
| Airport | Vienna International Airport (LOWW) |
| Time | Latitude | Longitude | Altitude | Speed | Heading |
|---|---|---|---|---|---|
| 2026-05-05 10:21 | 49.90519 | 11.07314 | 34851 ft | 475 kts | 106° |
| 2026-05-05 10:22 | 49.89125 | 11.17342 | 34848 ft | 475 kts | 106° |
| 2026-05-05 10:22 | 49.87731 | 11.27352 | 34850 ft | 475 kts | 106° |
| 2026-05-05 10:23 | 49.86321 | 11.37355 | 34853 ft | 475 kts | 106° |
| 2026-05-05 10:23 | 49.84904 | 11.47340 | 34829 ft | 474 kts | 106° |
| 2026-05-05 10:24 | 49.83486 | 11.57326 | 34835 ft | 474 kts | 106° |
| 2026-05-05 10:24 | 49.82060 | 11.67294 | 34830 ft | 474 kts | 106° |
| 2026-05-05 10:25 | 49.80621 | 11.77246 | 34824 ft | 473 kts | 107° |
| 2026-05-05 10:25 | 49.79184 | 11.87123 | 34809 ft | 473 kts | 106° |
| 2026-05-05 10:26 | 49.77730 | 11.97060 | 34816 ft | 473 kts | 106° |
| 2026-05-05 10:26 | 49.76265 | 12.06958 | 34822 ft | 473 kts | 106° |
| 2026-05-05 10:27 | 49.74793 | 12.16878 | 34823 ft | 473 kts | 106° |
| 2026-05-05 10:27 | 49.73323 | 12.26778 | 34835 ft | 473 kts | 107° |
| 2026-05-05 10:28 | 49.71841 | 12.36677 | 34831 ft | 472 kts | 106° |
| 2026-05-05 10:28 | 49.70344 | 12.46544 | 34837 ft | 471 kts | 106° |
| 2026-05-05 10:29 | 49.68902 | 12.56422 | 34839 ft | 471 kts | 105° |
| 2026-05-05 10:29 | 49.67537 | 12.66324 | 34840 ft | 471 kts | 105° |
| 2026-05-05 10:30 | 49.66160 | 12.76210 | 34830 ft | 470 kts | 108° |
| 2026-05-05 10:30 | 49.63672 | 12.85411 | 34831 ft | 461 kts | 125° |
| 2026-05-05 10:31 | 49.60045 | 12.93522 | 34826 ft | 459 kts | 129° |
| 2026-05-05 10:31 | 49.56380 | 13.01592 | 34826 ft | 460 kts | 129° |
| 2026-05-05 10:32 | 49.52710 | 13.09653 | 34824 ft | 460 kts | 129° |
| 2026-05-05 10:32 | 49.49036 | 13.17707 | 34832 ft | 460 kts | 129° |
| 2026-05-05 10:33 | 49.45350 | 13.25742 | 34832 ft | 460 kts | 129° |
| 2026-05-05 10:33 | 49.41660 | 13.33771 | 34823 ft | 460 kts | 129° |
| 2026-05-05 10:34 | 49.37963 | 13.41779 | 34827 ft | 460 kts | 129° |
| 2026-05-05 10:34 | 49.34265 | 13.49792 | 34819 ft | 460 kts | 129° |
| 2026-05-05 10:35 | 49.30559 | 13.57794 | 34824 ft | 460 kts | 129° |
| 2026-05-05 10:35 | 49.26842 | 13.65782 | 34823 ft | 461 kts | 129° |
| 2026-05-05 10:36 | 49.23114 | 13.73763 | 34830 ft | 461 kts | 129° |
| 2026-05-05 10:36 | 49.19383 | 13.81742 | 34829 ft | 461 kts | 129° |
| 2026-05-05 10:37 | 49.15647 | 13.89709 | 34821 ft | 461 kts | 129° |
| 2026-05-05 10:37 | 49.11924 | 13.97612 | 34828 ft | 461 kts | 129° |
| 2026-05-05 10:38 | 49.08168 | 14.05551 | 34829 ft | 461 kts | 129° |
| 2026-05-05 10:38 | 49.05312 | 14.11570 | 34831 ft | 461 kts | 129° |
| 2026-05-05 10:40 | 49.02098 | 14.18346 | 34604 ft | 455 kts | 129° |
| 2026-05-05 10:40 | 49.00261 | 14.22226 | 34344 ft | 450 kts | 128° |
| 2026-05-05 10:40 | 48.98435 | 14.26073 | 34102 ft | 448 kts | 129° |
| 2026-05-05 10:41 | 48.96604 | 14.29912 | 33727 ft | 446 kts | 129° |
| 2026-05-05 10:41 | 48.94788 | 14.33706 | 33070 ft | 443 kts | 129° |
| 2026-05-05 10:41 | 48.92960 | 14.37456 | 32488 ft | 438 kts | 129° |
| 2026-05-05 10:41 | 48.91118 | 14.41138 | 31914 ft | 435 kts | 130° |
| 2026-05-05 10:42 | 48.87440 | 14.48342 | 30762 ft | 429 kts | 130° |
| 2026-05-05 10:42 | 48.85588 | 14.51948 | 30195 ft | 442 kts | 130° |
| 2026-05-05 10:42 | 48.83683 | 14.55668 | 29564 ft | 448 kts | 129° |
| 2026-05-05 10:43 | 48.81776 | 14.59410 | 28976 ft | 448 kts | 129° |
| 2026-05-05 10:43 | 48.79877 | 14.63151 | 28375 ft | 446 kts | 129° |
| 2026-05-05 10:43 | 48.77994 | 14.66872 | 27783 ft | 443 kts | 129° |
| 2026-05-05 10:43 | 48.76122 | 14.70560 | 27213 ft | 440 kts | 129° |
| 2026-05-05 10:44 | 48.74257 | 14.74219 | 26654 ft | 436 kts | 129° |
| 2026-05-05 10:44 | 48.72407 | 14.77838 | 26109 ft | 433 kts | 129° |
| 2026-05-05 10:44 | 48.70572 | 14.81427 | 25572 ft | 429 kts | 129° |
| 2026-05-05 10:44 | 48.68748 | 14.84988 | 25062 ft | 427 kts | 129° |
| 2026-05-05 10:45 | 48.66934 | 14.88523 | 24545 ft | 424 kts | 129° |
| 2026-05-05 10:45 | 48.65132 | 14.92029 | 24031 ft | 421 kts | 129° |
| 2026-05-05 10:45 | 48.63337 | 14.95513 | 23379 ft | 421 kts | 129° |
| 2026-05-05 10:45 | 48.61537 | 14.99001 | 22699 ft | 418 kts | 129° |
| 2026-05-05 10:46 | 48.59830 | 15.02509 | 22197 ft | 413 kts | 123° |
| 2026-05-05 10:46 | 48.58572 | 15.06398 | 21683 ft | 411 kts | 111° |
| 2026-05-05 10:46 | 48.57793 | 15.10527 | 21156 ft | 408 kts | 105° |
| 2026-05-05 10:46 | 48.57092 | 15.14663 | 20604 ft | 405 kts | 105° |
| 2026-05-05 10:47 | 48.56626 | 15.17392 | 20208 ft | 404 kts | 105° |
| 2026-05-05 10:47 | 48.55920 | 15.21504 | 19622 ft | 412 kts | 106° |
| 2026-05-05 10:47 | 48.55188 | 15.25721 | 19028 ft | 416 kts | 106° |
| 2026-05-05 10:47 | 48.54455 | 15.29938 | 18468 ft | 415 kts | 106° |
| 2026-05-05 10:48 | 48.53723 | 15.34142 | 17868 ft | 413 kts | 107° |
| 2026-05-05 10:48 | 48.52994 | 15.38311 | 17228 ft | 410 kts | 106° |
| 2026-05-05 10:48 | 48.52271 | 15.42456 | 16620 ft | 406 kts | 105° |
| 2026-05-05 10:48 | 48.51854 | 15.46657 | 16001 ft | 404 kts | 97° |
| 2026-05-05 10:49 | 48.51624 | 15.50863 | 15405 ft | 401 kts | 97° |
| 2026-05-05 10:49 | 48.51395 | 15.55048 | 14817 ft | 399 kts | 96° |
| 2026-05-05 10:49 | 48.51162 | 15.59201 | 14236 ft | 396 kts | 97° |
| 2026-05-05 10:49 | 48.50928 | 15.63315 | 13675 ft | 393 kts | 97° |
| 2026-05-05 10:50 | 48.50695 | 15.67399 | 13044 ft | 389 kts | 97° |
| 2026-05-05 10:50 | 48.50465 | 15.71444 | 12425 ft | 385 kts | 97° |
| 2026-05-05 10:50 | 48.50233 | 15.75449 | 11804 ft | 382 kts | 98° |
| 2026-05-05 10:50 | 48.49999 | 15.79420 | 11210 ft | 377 kts | 98° |
| 2026-05-05 10:51 | 48.49772 | 15.83289 | 10959 ft | 364 kts | 98° |
| 2026-05-05 10:51 | 48.49554 | 15.87028 | 10709 ft | 351 kts | 98° |
| 2026-05-05 10:51 | 48.49341 | 15.90634 | 10470 ft | 341 kts | 98° |
| 2026-05-05 10:51 | 48.49129 | 15.94137 | 10220 ft | 330 kts | 98° |
| 2026-05-05 10:52 | 48.48787 | 15.97491 | 10001 ft | 317 kts | 110° |
| 2026-05-05 10:52 | 48.48089 | 16.00547 | 9975 ft | 301 kts | 113° |
| 2026-05-05 10:52 | 48.47414 | 16.03479 | 9927 ft | 294 kts | 113° |
| 2026-05-05 10:52 | 48.46745 | 16.06373 | 9851 ft | 292 kts | 113° |
| 2026-05-05 10:53 | 48.46075 | 16.09254 | 9741 ft | 291 kts | 113° |
| 2026-05-05 10:53 | 48.45403 | 16.12122 | 9614 ft | 290 kts | 113° |
| 2026-05-05 10:53 | 48.44728 | 16.14985 | 9480 ft | 290 kts | 113° |
| 2026-05-05 10:53 | 48.44051 | 16.17839 | 9344 ft | 288 kts | 113° |
| 2026-05-05 10:54 | 48.43377 | 16.20679 | 8700 ft | 289 kts | 114° |
| 2026-05-05 10:54 | 48.42701 | 16.23534 | 7924 ft | 289 kts | 114° |
| 2026-05-05 10:54 | 48.42032 | 16.26361 | 7363 ft | 282 kts | 113° |
| 2026-05-05 10:54 | 48.41400 | 16.29064 | 7106 ft | 265 kts | 114° |
| 2026-05-05 10:55 | 48.40793 | 16.31641 | 6769 ft | 257 kts | 114° |
| 2026-05-05 10:55 | 48.40188 | 16.34172 | 6505 ft | 255 kts | 114° |
| 2026-05-05 10:55 | 48.39600 | 16.36625 | 6241 ft | 242 kts | 114° |
| 2026-05-05 10:55 | 48.39042 | 16.38967 | 5971 ft | 235 kts | 114° |
| 2026-05-05 10:56 | 48.38495 | 16.41262 | 5862 ft | 233 kts | 115° |
| 2026-05-05 10:56 | 48.37948 | 16.43556 | 5792 ft | 233 kts | 115° |
| 2026-05-05 10:56 | 48.37230 | 16.45714 | 5588 ft | 228 kts | 133° |
| 2026-05-05 10:56 | 48.36101 | 16.47287 | 5365 ft | 219 kts | 152° |
| 2026-05-05 10:57 | 48.34725 | 16.48145 | 5115 ft | 211 kts | 167° |
| 2026-05-05 10:57 | 48.33360 | 16.48726 | 4846 ft | 202 kts | 167° |
| 2026-05-05 10:57 | 48.32031 | 16.49292 | 4578 ft | 195 kts | 167° |
| 2026-05-05 10:57 | 48.30734 | 16.49845 | 4342 ft | 193 kts | 166° |
| 2026-05-05 10:58 | 48.29486 | 16.50377 | 4100 ft | 180 kts | 166° |
| 2026-05-05 10:58 | 48.28323 | 16.50874 | 3869 ft | 167 kts | 166° |
| 2026-05-05 10:58 | 48.27248 | 16.51333 | 3635 ft | 155 kts | 169° |
| 2026-05-05 10:58 | 48.26281 | 16.51747 | 3446 ft | 136 kts | 170° |
| 2026-05-05 10:59 | 48.25390 | 16.52125 | 3272 ft | 130 kts | 170° |
| 2026-05-05 10:59 | 48.24527 | 16.52491 | 3107 ft | 128 kts | 168° |
| 2026-05-05 10:59 | 48.23667 | 16.52856 | 2934 ft | 129 kts | 169° |
| 2026-05-05 10:59 | 48.22808 | 16.53221 | 2760 ft | 128 kts | 168° |
| 2026-05-05 11:00 | 48.21957 | 16.53582 | 2593 ft | 127 kts | 167° |
| 2026-05-05 11:00 | 48.21114 | 16.53940 | 2431 ft | 126 kts | 166° |
| 2026-05-05 11:00 | 48.20272 | 16.54298 | 2265 ft | 126 kts | 164° |
| 2026-05-05 11:00 | 48.19426 | 16.54656 | 2103 ft | 126 kts | 164° |
| 2026-05-05 11:01 | 48.18578 | 16.55012 | 1950 ft | 127 kts | 164° |
| 2026-05-05 11:01 | 48.17732 | 16.55367 | 1749 ft | 126 kts | 163° |
| 2026-05-05 11:01 | 48.16892 | 16.55725 | 1593 ft | 124 kts | 163° |
| 2026-05-05 11:01 | 48.16054 | 16.56086 | 1429 ft | 129 kts | 165° |
| 2026-05-05 11:02 | 48.15200 | 16.56458 | 1269 ft | 127 kts | 165° |
| 2026-05-05 11:02 | 48.14363 | 16.56811 | 1128 ft | 125 kts | 164° |
| 2026-05-05 11:02 | 48.13528 | 16.57153 | 931 ft | 124 kts | 163° |
| 2026-05-05 11:02 | 48.12699 | 16.57501 | 780 ft | 124 kts | 160° |
| 2026-05-05 11:03 | 48.11868 | 16.57863 | 668 ft | 124 kts | 161° |
| 2026-05-05 11:03 | 48.11095 | 16.58195 | 610 ft | 97 kts | 166° |
| 2026-05-05 11:03 | 48.10611 | 16.58400 | 614 ft | 48 kts | 164° |
| 2026-05-05 11:03 | 48.10377 | 16.58470 | 618 ft | 29 kts | 182° |
| 2026-05-05 11:04 | 48.10196 | 16.58425 | 615 ft | 21 kts | 194° |
| 2026-05-05 11:04 | 48.10135 | 16.58350 | 617 ft | 5 kts | 285° |
| 2026-05-05 11:04 | 48.10212 | 16.58285 | 611 ft | 19 kts | 345° |
| 2026-05-05 11:04 | 48.10334 | 16.58234 | 610 ft | 18 kts | 344° |
| 2026-05-05 11:05 | 48.10447 | 16.58186 | 614 ft | 16 kts | 344° |
| 2026-05-05 11:05 | 48.10559 | 16.58139 | 616 ft | 21 kts | 344° |
| 2026-05-05 11:05 | 48.10770 | 16.58051 | 610 ft | 41 kts | 344° |
| 2026-05-05 11:05 | 48.11033 | 16.57937 | 618 ft | 29 kts | 344° |
| 2026-05-05 11:06 | 48.11150 | 16.57733 | 617 ft | 28 kts | 296° |
| 2026-05-05 11:06 | 48.11241 | 16.57460 | 614 ft | 29 kts | 296° |
| 2026-05-05 11:06 | 48.11316 | 16.57340 | 620 ft | 12 kts | 360° |
| 2026-05-05 11:06 | 48.11398 | 16.57389 | 620 ft | 13 kts | 14° |
| 2026-05-05 11:07 | 48.11459 | 16.57287 | 618 ft | 17 kts | 295° |
| 2026-05-05 11:07 | 48.11508 | 16.57132 | 615 ft | 16 kts | 296° |
| 2026-05-05 11:07 | 48.11558 | 16.56982 | 619 ft | 16 kts | 296° |
| 2026-05-05 11:07 | 48.11605 | 16.56837 | 614 ft | 15 kts | 296° |
| 2026-05-05 11:08 | 48.11641 | 16.56747 | 612 ft | 5 kts | 338° |
| 2026-05-05 11:08 | 48.11678 | 16.56768 | 615 ft | 6 kts | 25° |
| 2026-05-05 11:08 | 48.11709 | 16.56790 | 618 ft | 3 kts | 26° |
| 2026-05-05 11:08 | 48.11710 | 16.56791 | 617 ft | 0 kts | 26° |